createdAt,value
2022-08-27T00:01:53.073Z,23.15
2022-08-27T00:04:21.521Z,23.04
2022-08-27T00:06:49.843Z,23.22
2022-08-27T00:09:26.418Z,23.04
2022-08-27T00:11:55.721Z,23.50
2022-08-27T00:14:25.271Z,23.25
2022-08-27T00:16:53.706Z,23.37
2022-08-27T00:19:22.439Z,23.56
2022-08-27T00:21:51.119Z,23.38
2022-08-27T00:24:19.228Z,23.47
2022-08-27T00:26:47.537Z,23.63
2022-08-27T00:29:15.832Z,23.50
2022-08-27T00:31:45.430Z,23.04
2022-08-27T00:34:20.616Z,22.74
2022-08-27T00:36:48.940Z,23.10
2022-08-27T00:39:17.322Z,23.02
2022-08-27T00:41:45.673Z,22.61
2022-08-27T00:44:14.022Z,22.38
2022-08-27T00:46:47.040Z,22.45
2022-08-27T00:49:19.556Z,22.76
2022-08-27T00:51:50.409Z,22.89
2022-08-27T00:54:19.817Z,23.15
2022-08-27T00:56:51.480Z,23.19
2022-08-27T00:59:23.934Z,23.22
2022-08-27T01:02:07.293Z,22.70
2022-08-27T01:04:37.673Z,23.55
2022-08-27T01:07:06.805Z,23.69
2022-08-27T01:09:35.598Z,24.03
2022-08-27T01:12:05.874Z,24.62
2022-08-27T01:14:34.353Z,24.14
2022-08-27T01:17:05.352Z,24.04
2022-08-27T01:19:36.764Z,23.59
2022-08-27T01:22:09.871Z,23.91
2022-08-27T01:24:53.552Z,23.81
2022-08-27T01:27:23.585Z,24.05
2022-08-27T01:29:52.168Z,24.66
2022-08-27T01:32:22.626Z,25.01
2022-08-27T01:34:51.528Z,25.18
2022-08-27T01:37:23.708Z,24.61
2022-08-27T01:39:55.334Z,24.57
2022-08-27T01:42:25.066Z,24.26
2022-08-27T01:44:54.856Z,24.75
2022-08-27T01:47:30.275Z,25.03
2022-08-27T01:49:59.704Z,25.64
2022-08-27T01:52:29.970Z,24.85
2022-08-27T01:55:00.281Z,25.51
2022-08-27T01:57:29.281Z,25.19
2022-08-27T01:59:58.251Z,25.60
2022-08-27T02:02:27.687Z,25.17
2022-08-27T02:04:56.013Z,25.32
2022-08-27T02:07:24.140Z,25.76
2022-08-27T02:09:53.374Z,25.14
2022-08-27T02:12:23.312Z,24.54
2022-08-27T02:14:51.953Z,24.83
2022-08-27T02:17:20.379Z,24.40
2022-08-27T02:19:48.774Z,24.52
2022-08-27T02:22:17.128Z,24.57
2022-08-27T02:24:45.629Z,24.23
2022-08-27T02:27:14.230Z,24.36
2022-08-27T02:29:44.070Z,24.00
2022-08-27T02:32:22.733Z,24.41
2022-08-27T02:35:00.656Z,23.98
2022-08-27T02:37:29.149Z,24.17
2022-08-27T02:39:57.447Z,23.54
2022-08-27T02:42:25.829Z,23.90
2022-08-27T02:44:55.562Z,24.10
2022-08-27T02:47:23.932Z,24.19
2022-08-27T02:49:52.189Z,24.18
2022-08-27T02:52:24.916Z,23.76
2022-08-27T02:54:54.361Z,23.92
2022-08-27T02:57:22.945Z,23.61
2022-08-27T02:59:51.138Z,23.74
2022-08-27T03:02:21.582Z,23.25
2022-08-27T03:04:51.386Z,23.70
2022-08-27T03:07:19.910Z,23.97
2022-08-27T03:09:48.216Z,23.68
2022-08-27T03:12:17.207Z,23.75
2022-08-27T03:14:46.180Z,23.78
2022-08-27T03:17:31.814Z,23.97
2022-08-27T03:20:02.189Z,23.49
2022-08-27T03:22:30.382Z,23.57
2022-08-27T03:24:58.573Z,23.84
2022-08-27T03:27:26.981Z,23.94
2022-08-27T03:29:55.226Z,23.74
2022-08-27T03:32:23.336Z,24.05
2022-08-27T03:34:51.846Z,24.20
2022-08-27T03:37:21.492Z,23.69
2022-08-27T03:39:49.722Z,24.30
2022-08-27T03:42:18.144Z,24.30
2022-08-27T03:44:46.417Z,24.23
2022-08-27T03:47:14.644Z,24.05
2022-08-27T03:49:43.155Z,24.06
2022-08-27T03:52:11.741Z,24.64
2022-08-27T03:54:41.678Z,24.01
2022-08-27T03:57:10.746Z,24.44
2022-08-27T03:59:39.109Z,24.18
2022-08-27T04:02:07.382Z,24.17
2022-08-27T04:04:36.253Z,23.85
2022-08-27T04:07:05.180Z,24.06
2022-08-27T04:09:33.370Z,23.95
2022-08-27T04:12:03.714Z,23.41
2022-08-27T04:14:32.088Z,23.77
2022-08-27T04:17:00.822Z,23.61
2022-08-27T04:19:32.525Z,23.43
2022-08-27T04:22:01.946Z,23.38
2022-08-27T04:24:31.912Z,23.39
2022-08-27T04:27:00.372Z,23.33
2022-08-27T04:29:29.950Z,22.87
2022-08-27T04:31:58.814Z,22.57
2022-08-27T04:34:26.987Z,22.40
2022-08-27T04:36:56.915Z,22.19
2022-08-27T04:39:26.315Z,22.00
2022-08-27T04:41:56.380Z,21.90
2022-08-27T04:44:25.552Z,21.69
2022-08-27T04:46:58.936Z,21.28
2022-08-27T04:49:30.587Z,21.49
2022-08-27T04:52:00.659Z,21.35
2022-08-27T04:54:32.164Z,21.48
2022-08-27T04:57:02.945Z,20.94
2022-08-27T04:59:31.581Z,20.51
2022-08-27T05:02:03.624Z,19.88
2022-08-27T05:04:33.844Z,19.91
2022-08-27T05:07:02.304Z,19.60
2022-08-27T05:09:30.829Z,18.81
2022-08-27T05:11:59.155Z,18.15
2022-08-27T05:14:30.431Z,17.96
2022-08-27T05:16:59.120Z,17.37
2022-08-27T05:19:29.111Z,17.13
2022-08-27T05:21:57.434Z,17.33
2022-08-27T05:24:25.869Z,16.65
2022-08-27T05:26:54.649Z,16.63
2022-08-27T05:29:23.558Z,16.35
2022-08-27T05:31:51.973Z,15.78
2022-08-27T05:34:26.925Z,15.25
2022-08-27T05:36:57.105Z,14.38
2022-08-27T05:39:25.398Z,14.15
2022-08-27T05:41:58.029Z,13.49
2022-08-27T05:44:42.288Z,13.08
2022-08-27T05:47:11.246Z,12.35
2022-08-27T05:49:39.581Z,11.93
2022-08-27T05:52:12.023Z,11.92
2022-08-27T05:54:40.862Z,12.38
2022-08-27T05:57:09.037Z,12.70
2022-08-27T05:59:54.723Z,12.89
2022-08-27T06:02:23.253Z,12.68
2022-08-27T06:04:51.754Z,11.79
2022-08-27T06:07:21.655Z,11.52
2022-08-27T06:09:49.987Z,11.05
2022-08-27T06:12:18.273Z,10.67
2022-08-27T06:14:46.505Z,10.40
2022-08-27T06:17:14.913Z,10.70
2022-08-27T06:19:45.907Z,9.95
2022-08-27T06:22:15.208Z,9.63
2022-08-27T06:24:45.123Z,8.94
2022-08-27T06:27:14.565Z,8.73
2022-08-27T06:29:43.685Z,9.71
2022-08-27T06:32:13.490Z,9.75
2022-08-27T06:34:41.751Z,10.21
2022-08-27T06:37:10.447Z,9.54
2022-08-27T06:39:40.515Z,9.72
2022-08-27T06:42:11.969Z,9.62
2022-08-27T06:44:40.761Z,9.38
2022-08-27T06:47:08.907Z,8.68
2022-08-27T06:49:40.180Z,7.75
2022-08-27T06:52:08.546Z,7.40
2022-08-27T06:54:37.576Z,6.80
2022-08-27T06:57:06.081Z,7.07
2022-08-27T06:59:36.020Z,7.09
2022-08-27T07:02:06.889Z,7.03
2022-08-27T07:04:35.202Z,7.21
2022-08-27T07:07:05.061Z,6.43
2022-08-27T07:09:33.175Z,6.31
2022-08-27T07:12:02.015Z,6.04
2022-08-27T07:14:36.954Z,6.37
2022-08-27T07:17:10.740Z,6.40
2022-08-27T07:19:41.287Z,6.55
2022-08-27T07:22:10.992Z,6.72
2022-08-27T07:24:39.444Z,7.56
2022-08-27T07:27:07.985Z,7.54
2022-08-27T07:29:36.899Z,8.58
2022-08-27T07:32:05.553Z,8.64
2022-08-27T07:34:35.406Z,7.56
2022-08-27T07:37:03.791Z,7.03
2022-08-27T07:39:31.975Z,6.01
2022-08-27T07:42:17.638Z,5.57
2022-08-27T07:44:46.184Z,4.62
2022-08-27T07:47:14.383Z,4.43
2022-08-27T07:49:43.900Z,4.17
2022-08-27T07:52:13.068Z,3.96
2022-08-27T07:54:41.598Z,4.06
2022-08-27T07:57:10.274Z,3.83
2022-08-27T07:59:39.126Z,3.52
2022-08-27T08:02:07.381Z,3.40
2022-08-27T08:04:35.639Z,3.07
2022-08-27T08:07:05.493Z,2.68
2022-08-27T08:09:34.076Z,2.22
2022-08-27T08:12:02.268Z,2.98
2022-08-27T08:14:32.284Z,3.17
2022-08-27T08:17:02.084Z,3.53
2022-08-27T08:19:32.114Z,3.16
2022-08-27T08:22:05.001Z,2.52
2022-08-27T08:24:35.638Z,2.41
2022-08-27T08:27:07.172Z,1.93
2022-08-27T08:29:36.909Z,1.87
2022-08-27T08:32:05.390Z,1.26
2022-08-27T08:34:33.627Z,1.73
2022-08-27T08:37:01.830Z,1.60
2022-08-27T08:39:30.202Z,1.16
2022-08-27T08:42:01.139Z,0.73
2022-08-27T08:44:34.142Z,0.53
2022-08-27T08:47:10.534Z,0.51
2022-08-27T08:49:46.158Z,0.33
2022-08-27T08:52:31.261Z,0.00
2022-08-27T08:55:08.731Z,0.00
2022-08-27T08:57:42.456Z,0.00
2022-08-27T09:00:13.454Z,0.00
2022-08-27T09:02:50.648Z,0.00
2022-08-27T09:05:19.009Z,0.00
2022-08-27T09:08:05.153Z,0.03
2022-08-27T09:10:46.683Z,0.00
2022-08-27T09:13:23.360Z,0.00
2022-08-27T09:15:53.501Z,0.00
2022-08-27T09:18:21.843Z,0.00
2022-08-27T09:20:58.595Z,0.00
2022-08-27T09:23:30.006Z,0.00
2022-08-27T09:25:58.306Z,0.00
2022-08-27T09:28:47.594Z,0.00
2022-08-27T09:31:18.482Z,1.13
2022-08-27T09:33:56.645Z,1.57
2022-08-27T09:36:25.330Z,0.31
2022-08-27T09:38:58.251Z,0.14
2022-08-27T09:41:29.364Z,0.00
2022-08-27T09:44:00.431Z,0.16
2022-08-27T09:46:29.264Z,0.08
2022-08-27T09:48:57.509Z,0.10
2022-08-27T09:51:27.841Z,0.00
2022-08-27T09:53:57.958Z,0.00
2022-08-27T09:56:30.337Z,0.00
2022-08-27T09:59:05.804Z,0.00
2022-08-27T10:01:36.089Z,0.80
2022-08-27T10:04:07.479Z,1.96
2022-08-27T10:06:36.239Z,2.29
2022-08-27T10:09:09.346Z,3.05
2022-08-27T10:11:41.451Z,3.35
2022-08-27T10:14:16.313Z,4.28
2022-08-27T10:16:58.101Z,4.87
2022-08-27T10:19:42.827Z,5.56
2022-08-27T10:22:18.114Z,5.03
2022-08-27T10:24:56.582Z,3.46
2022-08-27T10:27:29.710Z,1.97
2022-08-27T10:30:05.454Z,1.45
2022-08-27T10:32:55.582Z,0.38
2022-08-27T10:35:26.853Z,0.04
2022-08-27T10:38:04.112Z,0.00
2022-08-27T10:40:35.356Z,0.00
2022-08-27T10:43:15.603Z,0.00
2022-08-27T10:45:48.707Z,0.00
2022-08-27T10:48:27.142Z,0.00
2022-08-27T10:50:58.545Z,0.00
2022-08-27T10:53:33.836Z,0.00
2022-08-27T10:56:13.978Z,0.00
2022-08-27T10:58:53.520Z,0.00
2022-08-27T11:01:30.698Z,0.00
2022-08-27T11:04:03.895Z,0.00
2022-08-27T11:06:34.744Z,0.00
2022-08-27T11:09:08.310Z,0.00
2022-08-27T11:14:31.030Z,0.00
2022-08-27T11:17:04.816Z,0.00
2022-08-27T11:19:44.203Z,0.25
2022-08-27T11:22:25.956Z,1.06
2022-08-27T11:24:59.892Z,2.03
2022-08-27T11:27:32.176Z,2.12
2022-08-27T11:30:05.381Z,2.29
2022-08-27T11:32:45.032Z,2.54
2022-08-27T11:35:19.326Z,3.02
2022-08-27T11:38:27.642Z,3.36
2022-08-27T11:41:06.877Z,4.10
2022-08-27T11:43:36.912Z,4.95
2022-08-27T11:46:07.926Z,4.85
2022-08-27T11:48:39.891Z,5.56
2022-08-27T11:51:10.075Z,6.33
2022-08-27T11:53:51.959Z,6.46
2022-08-27T11:56:39.953Z,6.90
2022-08-27T11:59:20.361Z,7.71
2022-08-27T12:01:49.831Z,8.10
2022-08-27T12:04:26.027Z,8.21
2022-08-27T12:07:02.918Z,8.30
2022-08-27T12:09:31.288Z,8.60
2022-08-27T12:12:05.398Z,8.15
2022-08-27T12:14:44.742Z,8.19
2022-08-27T12:17:18.145Z,8.47
2022-08-27T12:19:57.193Z,8.62
2022-08-27T12:22:58.014Z,8.99
2022-08-27T12:25:26.936Z,9.49
2022-08-27T12:28:03.336Z,9.36
2022-08-27T12:30:33.975Z,9.57
2022-08-27T12:33:13.170Z,9.90
2022-08-27T12:35:46.242Z,9.93
2022-08-27T12:38:18.787Z,10.30
2022-08-27T12:40:50.806Z,10.56
2022-08-27T12:43:22.253Z,9.94
2022-08-27T12:45:52.419Z,10.20
2022-08-27T12:48:23.264Z,10.11
2022-08-27T12:50:56.332Z,9.71
2022-08-27T12:53:43.478Z,10.03
2022-08-27T12:56:30.231Z,9.80
2022-08-27T12:59:08.794Z,10.06
2022-08-27T13:01:50.973Z,10.49
2022-08-27T13:04:22.973Z,10.45
2022-08-27T13:06:52.985Z,10.74
2022-08-27T13:09:29.082Z,10.89
2022-08-27T13:11:59.579Z,11.32
2022-08-27T13:14:28.681Z,10.51
2022-08-27T13:17:00.661Z,10.82
2022-08-27T13:19:31.338Z,10.75
2022-08-27T13:22:02.704Z,10.97
2022-08-27T13:24:32.330Z,11.11
2022-08-27T13:27:01.236Z,11.36
2022-08-27T13:29:29.841Z,11.71
2022-08-27T13:31:59.781Z,11.14
2022-08-27T13:34:29.893Z,11.69
2022-08-27T13:37:04.106Z,11.84
2022-08-27T13:39:34.508Z,11.85
2022-08-27T13:42:05.172Z,12.00
2022-08-27T13:44:36.608Z,12.08
2022-08-27T13:47:07.402Z,12.63
2022-08-27T13:49:40.214Z,12.86
2022-08-27T13:52:21.644Z,12.75
2022-08-27T13:54:51.112Z,13.37
2022-08-27T13:57:27.481Z,13.42
2022-08-27T13:59:55.887Z,13.96
2022-08-27T14:02:28.096Z,13.30
2022-08-27T14:05:11.423Z,13.37
2022-08-27T14:07:45.492Z,13.58
2022-08-27T14:10:31.385Z,13.48
2022-08-27T14:13:01.590Z,14.17
2022-08-27T14:15:33.979Z,14.07
2022-08-27T14:18:03.400Z,14.37
2022-08-27T14:20:31.991Z,14.52
2022-08-27T14:23:01.494Z,14.52
2022-08-27T14:25:29.735Z,14.74
2022-08-27T14:27:58.401Z,14.90
2022-08-27T14:30:29.708Z,14.90
2022-08-27T14:33:00.493Z,14.51
2022-08-27T14:35:29.726Z,14.35
2022-08-27T14:37:59.005Z,14.44
2022-08-27T14:40:28.910Z,14.60
2022-08-27T14:42:58.196Z,15.01
2022-08-27T14:45:26.454Z,14.60
2022-08-27T14:48:01.979Z,14.81
2022-08-27T14:50:30.569Z,14.88
2022-08-27T14:52:58.928Z,14.62
2022-08-27T14:55:28.462Z,14.21
2022-08-27T14:57:56.649Z,14.55
2022-08-27T15:00:25.186Z,14.49
2022-08-27T15:02:56.007Z,14.39
2022-08-27T15:05:26.464Z,13.87
2022-08-27T15:07:57.504Z,14.01
2022-08-27T15:10:26.568Z,14.37
2022-08-27T15:12:56.063Z,14.08
2022-08-27T15:15:24.963Z,14.63
2022-08-27T15:17:53.167Z,14.51
2022-08-27T15:20:21.645Z,14.62
2022-08-27T15:22:52.294Z,14.36
2022-08-27T15:25:20.842Z,14.73
2022-08-27T15:27:49.301Z,14.72
2022-08-27T15:30:19.988Z,14.19
2022-08-27T15:32:49.359Z,14.47
2022-08-27T15:35:20.420Z,14.03
2022-08-27T15:37:48.748Z,14.28
2022-08-27T15:40:18.870Z,13.91
2022-08-27T15:42:48.286Z,13.78
2022-08-27T15:45:17.203Z,14.28
2022-08-27T15:47:46.908Z,14.21
2022-08-27T15:50:15.080Z,14.03
2022-08-27T15:52:44.826Z,14.14
2022-08-27T15:55:21.852Z,14.00
2022-08-27T15:57:50.905Z,14.55
2022-08-27T16:00:20.276Z,15.03
2022-08-27T16:02:50.310Z,15.01
2022-08-27T16:05:19.444Z,14.29
2022-08-27T16:07:47.904Z,15.53
2022-08-27T16:10:16.566Z,15.80
2022-08-27T16:12:45.012Z,16.08
2022-08-27T16:15:13.681Z,15.73
2022-08-27T16:17:42.749Z,15.90
2022-08-27T16:20:15.702Z,15.71
2022-08-27T16:22:44.204Z,16.30
2022-08-27T16:25:17.781Z,16.22
2022-08-27T16:27:47.047Z,16.16
2022-08-27T16:30:15.772Z,16.46
2022-08-27T16:32:45.766Z,16.99
2022-08-27T16:35:16.116Z,17.13
2022-08-27T16:37:45.116Z,17.32
2022-08-27T16:40:15.035Z,17.33
2022-08-27T16:42:45.696Z,17.74
2022-08-27T16:45:14.936Z,18.03
2022-08-27T16:47:56.981Z,18.28
2022-08-27T16:50:36.293Z,17.59
2022-08-27T16:53:06.923Z,18.32
2022-08-27T16:55:37.683Z,18.66
2022-08-27T16:58:06.411Z,18.64
2022-08-27T17:00:34.578Z,18.66
2022-08-27T17:03:05.461Z,18.78
2022-08-27T17:05:35.420Z,17.89
2022-08-27T17:08:05.186Z,19.44
2022-08-27T17:10:36.469Z,19.06
2022-08-27T17:13:05.185Z,19.40
2022-08-27T17:15:33.737Z,19.39
2022-08-27T17:18:03.119Z,19.95
2022-08-27T17:20:33.555Z,19.60
2022-08-27T17:23:04.331Z,19.33
2022-08-27T17:25:32.490Z,18.68
2022-08-27T17:28:00.788Z,19.49
2022-08-27T17:30:29.290Z,19.34
2022-08-27T17:32:57.800Z,19.87
2022-08-27T17:35:26.017Z,20.11
2022-08-27T17:37:54.727Z,20.29
2022-08-27T17:40:24.815Z,20.15
2022-08-27T17:42:53.066Z,20.16
2022-08-27T17:45:21.450Z,20.51
2022-08-27T17:47:49.533Z,20.87
2022-08-27T17:50:17.980Z,21.00
2022-08-27T17:52:46.501Z,20.59
2022-08-27T17:55:14.687Z,20.69
2022-08-27T17:57:44.500Z,20.64
2022-08-27T18:00:14.968Z,20.84
2022-08-27T18:02:46.324Z,20.97
2022-08-27T18:05:16.519Z,21.10
2022-08-27T18:07:45.106Z,21.33
2022-08-27T18:10:15.201Z,21.22
2022-08-27T18:12:45.228Z,20.76
2022-08-27T18:15:17.659Z,21.05
2022-08-27T18:17:46.299Z,21.53
2022-08-27T18:20:16.635Z,21.36
2022-08-27T18:22:48.611Z,21.36
2022-08-27T18:25:18.812Z,21.45
2022-08-27T18:27:50.721Z,21.46
2022-08-27T18:30:19.290Z,21.92
2022-08-27T18:32:47.502Z,21.60
2022-08-27T18:35:18.147Z,21.94
2022-08-27T18:37:47.324Z,21.57
2022-08-27T18:40:17.048Z,21.89
2022-08-27T18:42:45.552Z,21.87
2022-08-27T18:45:17.092Z,21.66
2022-08-27T18:47:45.911Z,22.31
2022-08-27T18:50:17.792Z,21.67
2022-08-27T18:52:46.904Z,21.81
2022-08-27T18:55:17.996Z,21.66
2022-08-27T18:57:46.181Z,21.72
2022-08-27T19:00:19.051Z,21.66
2022-08-27T19:02:52.004Z,21.64
2022-08-27T19:05:22.972Z,21.77
2022-08-27T19:07:51.311Z,22.38
2022-08-27T19:10:19.644Z,22.35
2022-08-27T19:12:48.006Z,23.48
2022-08-27T19:15:17.956Z,23.17
2022-08-27T19:17:49.792Z,23.74
2022-08-27T19:20:18.763Z,23.97
2022-08-27T19:22:47.843Z,23.76
2022-08-27T19:25:16.726Z,25.00
2022-08-27T19:27:45.770Z,24.88
2022-08-27T19:30:15.406Z,25.43
2022-08-27T19:32:45.148Z,25.45
2022-08-27T19:35:15.079Z,26.53
2022-08-27T19:37:48.452Z,26.29
2022-08-27T19:40:22.259Z,26.59
2022-08-27T19:42:50.850Z,27.20
2022-08-27T19:45:22.979Z,27.55
2022-08-27T19:47:53.380Z,26.96
2022-08-27T19:50:22.617Z,26.94
2022-08-27T19:52:51.201Z,27.29
2022-08-27T19:55:19.862Z,26.77
2022-08-27T19:57:48.499Z,26.69
2022-08-27T20:00:19.677Z,26.54
2022-08-27T20:02:50.614Z,26.34
2022-08-27T20:05:20.947Z,24.78
2022-08-27T20:07:49.841Z,25.58
2022-08-27T20:10:18.255Z,25.72
2022-08-27T20:12:46.571Z,25.86
2022-08-27T20:15:15.633Z,25.58
2022-08-27T20:17:45.318Z,25.48
2022-08-27T20:20:14.120Z,25.68
2022-08-27T20:22:44.402Z,24.86
2022-08-27T20:25:13.775Z,25.62
2022-08-27T20:27:42.495Z,25.32
2022-08-27T20:30:13.062Z,25.45
2022-08-27T20:32:41.497Z,26.26
2022-08-27T20:35:11.012Z,26.27
2022-08-27T20:37:42.162Z,26.39
2022-08-27T20:40:15.203Z,25.49
2022-08-27T20:42:44.525Z,25.92
2022-08-27T20:45:12.979Z,25.93
2022-08-27T20:47:41.458Z,25.47
2022-08-27T20:50:11.806Z,25.49
2022-08-27T20:52:40.319Z,25.27
2022-08-27T20:55:10.167Z,25.00
2022-08-27T20:58:05.866Z,24.92
2022-08-27T21:00:37.747Z,25.58
2022-08-27T21:03:06.037Z,25.81
2022-08-27T21:05:35.634Z,26.02
2022-08-27T21:08:04.192Z,26.26
2022-08-27T21:10:32.461Z,26.28
2022-08-27T21:13:04.718Z,25.80
2022-08-27T21:15:33.599Z,26.00
2022-08-27T21:18:01.731Z,25.84
2022-08-27T21:20:29.821Z,25.69
2022-08-27T21:22:58.157Z,25.34
2022-08-27T21:25:27.323Z,25.12
2022-08-27T21:27:57.009Z,25.25
2022-08-27T21:30:27.302Z,25.20
2022-08-27T21:32:56.225Z,25.30
2022-08-27T21:35:26.539Z,25.38
2022-08-27T21:37:55.773Z,25.30
2022-08-27T21:40:25.309Z,25.33
2022-08-27T21:42:53.984Z,25.16
2022-08-27T21:45:22.654Z,25.43
2022-08-27T21:47:52.611Z,25.03
2022-08-27T21:50:21.854Z,24.90
2022-08-27T21:52:50.793Z,25.36
2022-08-27T21:55:19.536Z,25.24
2022-08-27T21:57:47.586Z,25.25
2022-08-27T22:00:37.524Z,24.16
2022-08-27T22:03:10.207Z,25.18
2022-08-27T22:05:40.974Z,24.77
2022-08-27T22:08:09.658Z,25.06
2022-08-27T22:10:38.350Z,25.10
2022-08-27T22:13:06.943Z,24.55
2022-08-27T22:15:35.271Z,24.89
2022-08-27T22:18:03.491Z,24.89
2022-08-27T22:20:33.517Z,24.60
2022-08-27T22:23:01.652Z,24.53
2022-08-27T22:25:29.880Z,24.72
2022-08-27T22:27:58.258Z,24.64
2022-08-27T22:30:26.405Z,24.71
2022-08-27T22:32:54.591Z,24.78
2022-08-27T22:35:23.460Z,24.50
2022-08-27T22:37:55.917Z,24.49
2022-08-27T22:40:25.878Z,24.03
2022-08-27T22:42:56.212Z,24.26
2022-08-27T22:45:25.296Z,24.53
2022-08-27T22:47:53.673Z,24.56
2022-08-27T22:50:22.760Z,24.38
2022-08-27T22:52:51.306Z,24.53
2022-08-27T22:55:23.359Z,24.51
2022-08-27T22:57:53.731Z,24.75
2022-08-27T23:00:24.681Z,24.96
2022-08-27T23:02:53.154Z,25.10
2022-08-27T23:05:21.637Z,25.09
2022-08-27T23:07:50.318Z,25.57
2022-08-27T23:10:21.799Z,25.15
2022-08-27T23:12:49.895Z,25.84
2022-08-27T23:15:19.633Z,25.92
2022-08-27T23:17:47.879Z,26.15
2022-08-27T23:20:16.655Z,26.16
2022-08-27T23:22:45.747Z,26.22
2022-08-27T23:25:31.886Z,26.86
2022-08-27T23:28:04.700Z,26.45
2022-08-27T23:30:34.937Z,26.86
2022-08-27T23:33:03.206Z,26.64
2022-08-27T23:35:31.350Z,26.32
2022-08-27T23:37:59.417Z,26.18
2022-08-27T23:40:27.806Z,25.89
2022-08-27T23:42:56.053Z,26.03
2022-08-27T23:45:27.053Z,25.43
2022-08-27T23:47:55.155Z,24.66
2022-08-27T23:50:25.177Z,26.05
2022-08-27T23:53:03.116Z,26.23
2022-08-27T23:55:31.115Z,26.52
2022-08-27T23:58:00.409Z,26.37
